Time;durP1;ratioP1;P1;durP2;ratioP2;P2;SDS_P1;SDS_P2;PMS_P1;PMS_P2;Temp;Humidity;BMP_temperature;BMP_pressure;BME280_temperature;BME280_humidity;BME280_pressure;Samples;Min_cycle;Max_cycle;Signal;HPM_P1;HPM_P2
2021/08/31 00:01:43;;;;;;;5.78;4.18;;;20.70;66.40;;;;;;4958047;28;20062;-80
2021/08/31 00:04:08;;;;;;;5.22;4.28;;;20.80;66.50;;;;;;4941632;28;20434;-81
2021/08/31 00:06:34;;;;;;;6.32;4.43;;;20.70;66.50;;;;;;4941730;28;20077;-79
2021/08/31 00:09:00;;;;;;;5.72;4.53;;;20.70;66.50;;;;;;4941597;28;20493;-79
2021/08/31 00:11:26;;;;;;;6.03;4.60;;;20.70;66.50;;;;;;4942158;28;20043;-79
2021/08/31 00:13:52;;;;;;;6.22;4.47;;;20.70;66.50;;;;;;4974766;28;20031;-80
2021/08/31 00:16:18;;;;;;;5.28;4.18;;;20.70;66.60;;;;;;4959098;28;20057;-79
2021/08/31 00:18:44;;;;;;;6.05;4.82;;;20.70;66.60;;;;;;4929494;28;20023;-79
2021/08/31 00:21:10;;;;;;;6.80;4.90;;;20.70;66.60;;;;;;4945198;28;20113;-78
2021/08/31 00:23:37;;;;;;;6.40;4.68;;;20.70;66.70;;;;;;4945369;28;20035;-80
2021/08/31 00:26:03;;;;;;;5.80;4.50;;;20.60;66.70;;;;;;4929356;28;20125;-80
2021/08/31 00:28:29;;;;;;;5.80;4.55;;;20.60;66.70;;;;;;4929555;28;20049;-79
2021/08/31 00:30:54;;;;;;;6.93;4.82;;;20.60;66.80;;;;;;4945008;28;20467;-80
2021/08/31 00:33:20;;;;;;;7.25;5.22;;;20.60;66.80;;;;;;4945030;28;20031;-79
2021/08/31 00:35:46;;;;;;;6.85;4.80;;;20.50;66.80;;;;;;4945752;28;20142;-79
2021/08/31 00:38:11;;;;;;;5.93;4.63;;;20.50;66.80;;;;;;4944800;28;20031;-79
2021/08/31 00:40:37;;;;;;;6.20;4.68;;;20.50;66.80;;;;;;4945010;28;20471;-79
2021/08/31 00:43:05;;;;;;;6.20;4.30;;;20.50;66.80;;;;;;4960724;28;20034;-79
2021/08/31 00:45:31;;;;;;;6.57;4.88;;;20.50;66.80;;;;;;4944833;28;20031;-79
2021/08/31 00:47:58;;;;;;;5.47;4.15;;;20.50;66.80;;;;;;4944308;28;20072;-80
2021/08/31 00:50:24;;;;;;;6.07;4.75;;;20.40;66.80;;;;;;4944864;28;20038;-80
2021/08/31 00:52:50;;;;;;;5.85;4.70;;;20.40;66.80;;;;;;4944729;28;20050;-79
2021/08/31 00:55:15;;;;;;;6.40;4.38;;;20.40;66.90;;;;;;4950431;28;20027;-80
2021/08/31 00:57:42;;;;;;;5.82;4.40;;;20.40;66.90;;;;;;4936499;28;20051;-79
2021/08/31 01:00:09;;;;;;;6.18;4.63;;;20.40;66.90;;;;;;4949950;28;20026;-79
2021/08/31 01:02:35;;;;;;;6.00;4.68;;;20.40;67.00;;;;;;4948017;28;20034;-79
2021/08/31 01:05:03;;;;;;;6.45;4.75;;;20.40;67.10;;;;;;4951541;28;20041;-80
2021/08/31 01:07:28;;;;;;;5.82;4.43;;;20.30;67.00;;;;;;4931417;28;20120;-80
2021/08/31 01:09:55;;;;;;;6.78;4.82;;;20.30;67.00;;;;;;4930784;28;20039;-80
2021/08/31 01:12:21;;;;;;;6.55;4.38;;;20.30;67.00;;;;;;4945161;28;20431;-80
2021/08/31 01:14:48;;;;;;;6.00;5.03;;;20.30;67.10;;;;;;4977416;28;20058;-81
2021/08/31 01:17:15;;;;;;;5.82;4.43;;;20.30;67.10;;;;;;4960145;28;20022;-80
2021/08/31 01:19:41;;;;;;;7.25;4.97;;;20.20;67.10;;;;;;4960395;28;20038;-80
2021/08/31 01:22:10;;;;;;;6.25;4.90;;;20.20;67.10;;;;;;4960156;28;20042;-80
2021/08/31 01:24:42;;;;;;;7.95;4.95;;;20.20;67.20;;;;;;4960515;28;20056;-80
2021/08/31 01:27:08;;;;;;;6.88;5.03;;;20.20;67.20;;;;;;4977017;28;20391;-81
2021/08/31 01:29:35;;;;;;;5.95;4.82;;;20.20;67.20;;;;;;4928279;28;20529;-80
2021/08/31 01:32:02;;;;;;;5.97;4.47;;;20.20;67.30;;;;;;4959896;28;20023;-80
2021/08/31 01:34:28;;;;;;;6.07;4.78;;;20.20;67.30;;;;;;4959900;28;20039;-80
2021/08/31 01:36:54;;;;;;;6.45;5.05;;;20.20;67.40;;;;;;4959747;28;20501;-80
2021/08/31 01:39:21;;;;;;;7.07;4.78;;;20.10;67.40;;;;;;4943979;28;20030;-80
2021/08/31 01:41:47;;;;;;;5.60;4.45;;;20.10;67.40;;;;;;4944755;28;20035;-80
2021/08/31 01:44:12;;;;;;;6.38;4.80;;;20.10;67.40;;;;;;4959992;28;20054;-80
2021/08/31 01:46:38;;;;;;;6.63;4.82;;;20.10;67.40;;;;;;4959493;28;20058;-80
2021/08/31 01:49:04;;;;;;;6.82;4.63;;;20.10;67.40;;;;;;4944247;28;20142;-80
2021/08/31 01:51:30;;;;;;;5.50;4.47;;;20.00;67.40;;;;;;4944570;28;20471;-80
2021/08/31 01:53:56;;;;;;;6.18;4.47;;;20.00;67.40;;;;;;4959835;28;20042;-81
2021/08/31 01:56:21;;;;;;;6.07;4.57;;;20.00;67.40;;;;;;4960267;28;20046;-81
2021/08/31 01:58:47;;;;;;;5.35;4.20;;;20.00;67.40;;;;;;4959194;28;20395;-80
2021/08/31 02:01:13;;;;;;;5.88;4.68;;;20.00;67.50;;;;;;4943654;28;20030;-80
2021/08/31 02:03:39;;;;;;;6.97;4.95;;;20.00;67.50;;;;;;4960185;28;20528;-80
2021/08/31 02:06:05;;;;;;;6.75;4.38;;;20.00;67.60;;;;;;4927605;28;20069;-81
2021/08/31 02:08:30;;;;;;;6.28;4.78;;;20.00;67.60;;;;;;4928345;28;20031;-80
2021/08/31 02:10:56;;;;;;;5.65;4.57;;;19.90;67.50;;;;;;4943523;28;20491;-80
2021/08/31 02:13:22;;;;;;;6.57;4.68;;;19.90;67.60;;;;;;4959492;28;20078;-80
2021/08/31 02:15:48;;;;;;;6.07;4.65;;;19.90;67.60;;;;;;4943110;28;20503;-80
2021/08/31 02:18:14;;;;;;;5.85;4.50;;;19.90;67.60;;;;;;4976872;28;20379;-81
2021/08/31 02:20:39;;;;;;;6.43;4.15;;;19.90;67.70;;;;;;4958893;28;20034;-80
2021/08/31 02:23:07;;;;;;;5.68;4.43;;;19.90;67.70;;;;;;4943166;28;20026;-80
2021/08/31 02:25:33;;;;;;;6.00;4.22;;;19.90;67.70;;;;;;4943967;28;20052;-81
2021/08/31 02:27:58;;;;;;;5.32;4.38;;;19.90;67.70;;;;;;4943424;28;20094;-80
2021/08/31 02:30:24;;;;;;;6.13;4.00;;;19.80;67.70;;;;;;4942924;28;20033;-80
2021/08/31 02:32:50;;;;;;;5.15;3.78;;;19.80;67.70;;;;;;4959172;28;20042;-79
2021/08/31 02:35:17;;;;;;;5.57;4.22;;;19.80;67.70;;;;;;4942915;28;20041;-80
2021/08/31 02:37:43;;;;;;;5.28;3.85;;;19.80;67.80;;;;;;4975861;28;20054;-81
2021/08/31 02:40:10;;;;;;;5.28;3.97;;;19.80;67.80;;;;;;4926820;28;20035;-82
2021/08/31 02:42:36;;;;;;;5.28;3.78;;;19.80;67.80;;;;;;4942936;28;20031;-80
2021/08/31 02:45:03;;;;;;;5.38;4.15;;;19.80;67.80;;;;;;4942643;28;20027;-80
2021/08/31 02:47:29;;;;;;;5.70;4.30;;;19.80;67.90;;;;;;4975872;28;20046;-81
2021/08/31 02:49:55;;;;;;;6.70;4.47;;;19.80;67.90;;;;;;4958746;28;20399;-80
2021/08/31 02:52:20;;;;;;;5.93;3.92;;;19.70;67.80;;;;;;4927011;28;20027;-79
2021/08/31 02:54:46;;;;;;;5.30;3.65;;;19.70;67.90;;;;;;4928689;28;20031;-79
2021/08/31 02:57:12;;;;;;;6.30;4.15;;;19.70;67.90;;;;;;4947951;28;20424;-80
2021/08/31 02:59:38;;;;;;;6.18;4.03;;;19.70;67.90;;;;;;4948246;28;20026;-80
2021/08/31 03:02:10;;;;;;;5.47;3.97;;;19.70;67.90;;;;;;4962304;28;20365;-80
2021/08/31 03:04:39;;;;;;;6.20;4.50;;;19.70;68.00;;;;;;4943764;28;20031;-80
2021/08/31 03:07:07;;;;;;;5.30;3.78;;;19.70;68.00;;;;;;4958567;28;20038;-80
2021/08/31 03:09:33;;;;;;;5.82;4.00;;;19.60;68.00;;;;;;4942164;28;20471;-80
2021/08/31 03:11:59;;;;;;;4.93;3.97;;;19.70;68.00;;;;;;4958610;28;20035;-80
2021/08/31 03:14:25;;;;;;;5.15;3.78;;;19.60;68.00;;;;;;4927535;28;20026;-81
2021/08/31 03:16:51;;;;;;;5.40;4.30;;;19.60;68.00;;;;;;4944291;28;20038;-80
2021/08/31 03:19:17;;;;;;;5.22;3.83;;;19.60;68.00;;;;;;4945256;28;20093;-80
2021/08/31 03:21:44;;;;;;;4.90;3.50;;;19.60;68.00;;;;;;4944793;28;20043;-80
2021/08/31 03:24:10;;;;;;;6.88;4.45;;;19.60;68.00;;;;;;4958788;28;20391;-79
2021/08/31 03:26:35;;;;;;;5.13;3.80;;;19.60;68.10;;;;;;4958568;28;20043;-80
2021/08/31 03:29:02;;;;;;;5.63;3.90;;;19.60;68.10;;;;;;4942634;28;20466;-80
2021/08/31 03:31:27;;;;;;;5.18;3.65;;;19.60;68.10;;;;;;4942825;28;20038;-81
2021/08/31 03:33:53;;;;;;;5.20;3.80;;;19.60;68.10;;;;;;4942183;28;20494;-80
2021/08/31 03:36:19;;;;;;;5.50;3.83;;;19.50;68.00;;;;;;4974752;28;20026;-80
2021/08/31 03:38:45;;;;;;;5.25;3.75;;;19.50;68.10;;;;;;4925995;28;20054;-81
2021/08/31 03:41:10;;;;;;;4.80;3.50;;;19.60;68.20;;;;;;4973804;28;20499;-81
2021/08/31 03:43:36;;;;;;;5.82;3.58;;;19.50;68.20;;;;;;4926164;28;20065;-80
2021/08/31 03:46:02;;;;;;;5.57;3.90;;;19.50;68.20;;;;;;4957628;28;20031;-80
2021/08/31 03:48:28;;;;;;;5.38;3.67;;;19.50;68.20;;;;;;4942397;28;20058;-80
2021/08/31 03:50:54;;;;;;;5.60;3.88;;;19.50;68.20;;;;;;4956855;28;20034;-80
2021/08/31 03:53:19;;;;;;;5.55;3.70;;;19.50;68.30;;;;;;4925846;28;20448;-80
2021/08/31 03:55:45;;;;;;;5.47;3.95;;;19.50;68.30;;;;;;4925871;28;20030;-79
2021/08/31 03:58:11;;;;;;;5.53;4.03;;;19.50;68.30;;;;;;4941819;28;20031;-82
2021/08/31 04:00:37;;;;;;;4.97;3.58;;;19.50;68.30;;;;;;4957443;28;20039;-79
2021/08/31 04:03:02;;;;;;;5.57;3.47;;;19.50;68.40;;;;;;4974542;28;20027;-80
2021/08/31 04:05:29;;;;;;;5.00;3.53;;;19.50;68.40;;;;;;4957427;28;20117;-80
2021/08/31 04:07:56;;;;;;;5.18;3.58;;;19.40;68.40;;;;;;4941652;28;20468;-81
2021/08/31 04:10:22;;;;;;;5.10;3.47;;;19.40;68.50;;;;;;4957608;28;20185;-80
2021/08/31 04:12:47;;;;;;;5.20;3.38;;;19.40;68.50;;;;;;4957538;28;20147;-80
2021/08/31 04:15:13;;;;;;;5.07;3.50;;;19.40;68.50;;;;;;4957388;28;20424;-82
2021/08/31 04:17:39;;;;;;;6.03;3.83;;;19.40;68.50;;;;;;4941359;28;20037;-80
2021/08/31 04:20:06;;;;;;;4.95;3.47;;;19.40;68.50;;;;;;4941404;28;20034;-80
2021/08/31 04:22:32;;;;;;;6.03;3.63;;;19.40;68.50;;;;;;4941399;28;20094;-79
2021/08/31 04:24:58;;;;;;;5.55;3.58;;;19.40;68.50;;;;;;4941289;28;20062;-80
2021/08/31 04:27:23;;;;;;;5.32;3.63;;;19.40;68.50;;;;;;4925180;28;20073;-80
2021/08/31 04:29:49;;;;;;;5.10;3.75;;;19.40;68.60;;;;;;4941605;28;20456;-80
2021/08/31 04:32:15;;;;;;;4.90;3.33;;;19.40;68.60;;;;;;4925570;28;20387;-82
2021/08/31 04:34:41;;;;;;;4.30;3.08;;;19.40;68.60;;;;;;4941538;28;20094;-80
2021/08/31 04:37:07;;;;;;;4.57;3.20;;;19.40;68.70;;;;;;4925561;28;20030;-80
2021/08/31 04:39:33;;;;;;;5.32;3.22;;;19.40;68.60;;;;;;4941364;28;20530;-80
2021/08/31 04:42:02;;;;;;;4.55;3.20;;;19.40;68.70;;;;;;4957328;28;20039;-80
2021/08/31 04:44:32;;;;;;;4.88;3.05;;;19.40;68.70;;;;;;4956985;28;20034;-79
2021/08/31 04:46:58;;;;;;;4.63;3.20;;;19.40;68.70;;;;;;4940900;28;20051;-79
2021/08/31 04:49:24;;;;;;;4.45;2.90;;;19.40;68.70;;;;;;4956935;28;20034;-80
2021/08/31 04:51:50;;;;;;;4.80;3.03;;;19.40;68.70;;;;;;4941056;28;20437;-80
2021/08/31 04:54:16;;;;;;;5.00;2.97;;;19.40;68.70;;;;;;4941300;28;20031;-80
2021/08/31 04:56:41;;;;;;;4.45;3.20;;;19.40;68.80;;;;;;4957070;28;20397;-80
2021/08/31 04:59:07;;;;;;;5.50;3.17;;;19.40;68.80;;;;;;4941433;28;20117;-80
2021/08/31 05:01:33;;;;;;;4.57;3.10;;;19.40;68.70;;;;;;4925383;28;20042;-80
2021/08/31 05:03:59;;;;;;;4.72;2.95;;;19.40;68.70;;;;;;4960607;28;20043;-79
2021/08/31 05:06:24;;;;;;;4.05;2.97;;;19.40;68.80;;;;;;4944228;28;20033;-80
2021/08/31 05:08:50;;;;;;;4.45;2.85;;;19.40;68.80;;;;;;4944877;28;20035;-80
2021/08/31 05:11:16;;;;;;;3.45;2.70;;;19.40;68.80;;;;;;4960421;28;20497;-80
2021/08/31 05:13:42;;;;;;;3.80;2.67;;;19.40;68.80;;;;;;4944324;28;20027;-80
2021/08/31 05:16:13;;;;;;;3.90;2.80;;;19.40;68.80;;;;;;4960320;28;20074;-80
2021/08/31 05:18:38;;;;;;;4.15;2.55;;;19.40;68.90;;;;;;4960530;28;20122;-80
2021/08/31 05:21:05;;;;;;;4.40;3.15;;;19.40;68.80;;;;;;4929145;28;20208;-80
2021/08/31 05:23:34;;;;;;;4.50;2.70;;;19.40;68.80;;;;;;4944213;28;20039;-80
2021/08/31 05:26:00;;;;;;;4.35;2.92;;;19.40;68.90;;;;;;4928263;28;20053;-80
2021/08/31 05:28:27;;;;;;;4.10;2.55;;;19.30;68.80;;;;;;4928510;28;20031;-80
2021/08/31 05:30:56;;;;;;;4.32;2.80;;;19.30;68.80;;;;;;4944092;28;20041;-79
2021/08/31 05:33:22;;;;;;;5.18;2.70;;;19.40;68.80;;;;;;4943984;28;20023;-83
2021/08/31 05:35:48;;;;;;;5.63;3.45;;;19.40;68.90;;;;;;4927846;28;20027;-80
2021/08/31 05:38:13;;;;;;;3.75;2.38;;;19.40;68.90;;;;;;4928149;28;20121;-81
2021/08/31 05:40:39;;;;;;;4.88;2.63;;;19.40;68.90;;;;;;4944532;28;20441;-80
2021/08/31 05:43:05;;;;;;;3.40;2.28;;;19.40;68.90;;;;;;4928072;28;20054;-80
2021/08/31 05:45:33;;;;;;;3.92;2.60;;;19.30;68.90;;;;;;4959701;28;20490;-80
2021/08/31 05:47:59;;;;;;;4.18;2.78;;;19.40;68.90;;;;;;4959859;28;20050;-80
2021/08/31 05:50:25;;;;;;;5.13;2.35;;;19.30;68.90;;;;;;4943679;28;20387;-80
2021/08/31 05:52:51;;;;;;;4.22;2.67;;;19.40;68.90;;;;;;4960434;28;20085;-80
2021/08/31 05:55:17;;;;;;;4.95;2.88;;;19.40;68.90;;;;;;4959512;28;20035;-80
2021/08/31 05:57:43;;;;;;;4.78;3.05;;;19.40;69.00;;;;;;4944328;28;20039;-80
2021/08/31 06:00:11;;;;;;;4.10;2.67;;;19.40;69.00;;;;;;4959508;28;20086;-79
2021/08/31 06:02:39;;;;;;;3.58;2.65;;;19.40;69.00;;;;;;4960202;28;20062;-79
2021/08/31 06:05:06;;;;;;;4.15;2.58;;;19.30;68.90;;;;;;4959515;28;20038;-80
2021/08/31 06:07:35;;;;;;;5.05;3.17;;;19.40;69.00;;;;;;4944278;28;20471;-80
2021/08/31 06:10:03;;;;;;;4.15;2.40;;;19.40;69.00;;;;;;4975686;28;20460;-79
2021/08/31 06:12:29;;;;;;;4.28;2.60;;;19.40;69.00;;;;;;4959990;28;20019;-80
2021/08/31 06:14:55;;;;;;;5.30;3.00;;;19.40;69.00;;;;;;4959033;28;20546;-80
2021/08/31 06:17:22;;;;;;;4.07;2.80;;;19.30;69.00;;;;;;4927732;28;20038;-79
2021/08/31 06:19:48;;;;;;;4.78;2.60;;;19.40;69.10;;;;;;4943784;28;20034;-80
2021/08/31 06:22:14;;;;;;;4.35;2.35;;;19.40;69.10;;;;;;4958991;28;20042;-79
2021/08/31 06:24:40;;;;;;;4.53;2.72;;;19.30;69.00;;;;;;4928173;28;20038;-80
2021/08/31 06:27:06;;;;;;;4.18;2.38;;;19.40;69.10;;;;;;4959304;28;20038;-79
2021/08/31 06:29:32;;;;;;;4.65;2.88;;;19.40;69.10;;;;;;4943647;28;20042;-81
2021/08/31 06:31:58;;;;;;;3.83;2.38;;;19.40;69.10;;;;;;4927121;28;20035;-78
2021/08/31 06:34:24;;;;;;;5.57;2.53;;;19.40;69.10;;;;;;4975812;28;20365;-79
2021/08/31 06:36:50;;;;;;;5.53;2.85;;;19.40;69.00;;;;;;4943552;28;20066;-78
2021/08/31 06:39:16;;;;;;;4.13;2.80;;;19.40;69.10;;;;;;4958709;28;20109;-77
2021/08/31 06:41:42;;;;;;;4.57;2.40;;;19.40;69.10;;;;;;4926829;28;20125;-79
2021/08/31 06:44:07;;;;;;;3.92;2.50;;;19.40;69.10;;;;;;4942668;28;20474;-79
2021/08/31 06:46:33;;;;;;;4.45;2.80;;;19.40;69.10;;;;;;4958601;28;20122;-78
2021/08/31 06:48:59;;;;;;;5.13;2.90;;;19.40;69.20;;;;;;4958385;28;20035;-79
2021/08/31 06:51:25;;;;;;;3.95;2.25;;;19.40;69.10;;;;;;4959356;28;20031;-79
2021/08/31 06:53:51;;;;;;;3.90;2.78;;;19.40;69.10;;;;;;4926665;28;20031;-79
2021/08/31 06:56:17;;;;;;;4.25;2.58;;;19.40;69.10;;;;;;4926702;28;20042;-79
2021/08/31 06:58:42;;;;;;;3.63;2.67;;;19.40;69.10;;;;;;4942322;28;20035;-78
2021/08/31 07:01:08;;;;;;;4.93;2.58;;;19.50;69.20;;;;;;4958177;28;20479;-78
2021/08/31 07:03:34;;;;;;;5.25;2.63;;;19.50;69.20;;;;;;4958164;28;20046;-79
2021/08/31 07:06:00;;;;;;;3.28;2.20;;;19.50;69.20;;;;;;4942209;28;20113;-78
2021/08/31 07:08:25;;;;;;;5.45;2.80;;;19.50;69.20;;;;;;4958620;28;20035;-79
2021/08/31 07:10:51;;;;;;;3.70;2.33;;;19.40;69.20;;;;;;4926427;28;20146;-78
2021/08/31 07:13:17;;;;;;;3.78;2.25;;;19.40;69.20;;;;;;4942192;28;20082;-79
2021/08/31 07:15:43;;;;;;;4.10;2.30;;;19.50;69.30;;;;;;4942366;28;20050;-78
2021/08/31 07:18:09;;;;;;;4.55;2.92;;;19.50;69.30;;;;;;4958020;28;20376;-79
2021/08/31 07:20:35;;;;;;;3.80;2.50;;;19.50;69.30;;;;;;4942143;28;20034;-79
2021/08/31 07:23:01;;;;;;;3.55;2.42;;;19.50;69.30;;;;;;4942452;28;20035;-78
2021/08/31 07:25:27;;;;;;;4.70;2.30;;;19.50;69.30;;;;;;4942240;28;20031;-79
2021/08/31 07:27:53;;;;;;;3.22;2.40;;;19.50;69.30;;;;;;4941951;28;20034;-79
2021/08/31 07:30:19;;;;;;;4.20;2.63;;;19.50;69.30;;;;;;4942683;28;20535;-80
2021/08/31 07:32:45;;;;;;;3.85;2.50;;;19.50;69.40;;;;;;4958085;28;20058;-79
2021/08/31 07:35:11;;;;;;;3.00;2.25;;;19.60;69.40;;;;;;4926050;28;20451;-78
2021/08/31 07:37:37;;;;;;;5.80;2.83;;;19.50;69.40;;;;;;4941871;28;20395;-78
2021/08/31 07:40:03;;;;;;;3.95;2.40;;;19.60;69.50;;;;;;4958035;28;20053;-80
2021/08/31 07:42:29;;;;;;;5.90;2.90;;;19.60;69.50;;;;;;4957900;28;20137;-79
2021/08/31 07:44:55;;;;;;;4.20;2.80;;;19.60;69.50;;;;;;4941817;28;20114;-79
2021/08/31 07:47:21;;;;;;;4.40;2.65;;;19.60;69.50;;;;;;4957813;28;20057;-80
2021/08/31 07:49:46;;;;;;;5.03;2.90;;;19.60;69.50;;;;;;4943013;28;20475;-82
2021/08/31 07:52:12;;;;;;;5.05;2.78;;;19.60;69.50;;;;;;4957543;28;20035;-80
2021/08/31 07:54:38;;;;;;;4.45;2.67;;;19.70;69.60;;;;;;4941971;28;20113;-81
2021/08/31 07:57:04;;;;;;;4.95;2.40;;;19.70;69.70;;;;;;4941983;28;20473;-82
2021/08/31 07:59:30;;;;;;;4.22;2.72;;;19.70;69.60;;;;;;4974008;28;20035;-82
2021/08/31 08:01:56;;;;;;;5.22;2.70;;;19.70;69.70;;;;;;4941747;28;20027;-82
2021/08/31 08:04:22;;;;;;;3.65;2.50;;;19.70;69.70;;;;;;4941902;28;20046;-81
2021/08/31 08:06:48;;;;;;;5.10;2.65;;;19.70;69.70;;;;;;4926280;28;20039;-82
2021/08/31 08:09:13;;;;;;;4.43;2.42;;;19.80;69.70;;;;;;4957979;28;20364;-82
2021/08/31 08:11:39;;;;;;;4.95;3.10;;;19.80;69.70;;;;;;4943097;28;20050;-82
2021/08/31 08:14:05;;;;;;;3.92;2.30;;;19.80;69.70;;;;;;4941947;28;20034;-82
2021/08/31 08:16:31;;;;;;;4.45;3.10;;;19.80;69.70;;;;;;4975102;28;20050;-83
2021/08/31 08:18:57;;;;;;;4.10;2.67;;;19.80;69.70;;;;;;4957446;28;20031;-83
2021/08/31 08:21:22;;;;;;;4.88;2.40;;;19.90;69.70;;;;;;4973375;28;20457;-79
2021/08/31 08:23:48;;;;;;;4.75;2.50;;;19.90;69.70;;;;;;4957441;28;20034;-80
2021/08/31 08:26:14;;;;;;;4.82;2.78;;;19.90;69.60;;;;;;4941394;28;20037;-81
2021/08/31 08:28:40;;;;;;;3.70;2.40;;;19.90;69.50;;;;;;4941645;28;20109;-80
2021/08/31 08:31:06;;;;;;;4.28;2.53;;;20.00;69.60;;;;;;4941362;28;20043;-80
2021/08/31 08:33:32;;;;;;;6.15;3.13;;;20.00;69.60;;;;;;4974861;28;20094;-80
2021/08/31 08:36:04;;;;;;;4.60;2.72;;;20.00;69.60;;;;;;4941518;28;20043;-79
2021/08/31 08:38:30;;;;;;;3.92;2.50;;;20.10;69.70;;;;;;4961005;28;20033;-79
2021/08/31 08:41:03;;;;;;;5.13;2.70;;;20.10;69.60;;;;;;4944987;28;20027;-80
2021/08/31 08:43:29;;;;;;;4.63;2.70;;;20.10;69.60;;;;;;4960797;28;20027;-80
2021/08/31 08:45:56;;;;;;;4.00;2.40;;;20.20;69.50;;;;;;4976938;28;20027;-80
2021/08/31 08:48:24;;;;;;;5.38;2.88;;;20.20;69.60;;;;;;4942073;29;20073;-80
2021/08/31 08:50:53;;;;;;;4.85;2.92;;;20.20;69.50;;;;;;4938344;29;20067;-80
2021/08/31 08:53:19;;;;;;;4.18;2.53;;;20.20;69.50;;;;;;4922831;29;20036;-80
2021/08/31 08:55:45;;;;;;;4.43;2.63;;;20.20;69.40;;;;;;4938714;29;20027;-82
2021/08/31 08:58:11;;;;;;;4.38;2.40;;;20.30;69.40;;;;;;4922847;29;20036;-81
2021/08/31 09:01:13;;;;;;;4.57;2.90;;;20.30;69.40;;;;;;4938626;29;20035;-81
2021/08/31 09:03:41;;;;;;;3.47;2.30;;;20.30;69.50;;;;;;4918255;29;20070;-81
2021/08/31 09:06:10;;;;;;;3.28;2.10;;;20.40;69.30;;;;;;4938394;29;20075;-79
2021/08/31 09:08:39;;;;;;;3.13;2.03;;;20.40;69.30;;;;;;4938177;29;20047;-80
2021/08/31 09:11:20;;;;;;;4.70;2.83;;;20.40;69.20;;;;;;4938682;29;20032;-78
2021/08/31 09:13:47;;;;;;;5.10;3.00;;;20.50;69.40;;;;;;4922262;29;20031;-80
2021/08/31 09:16:29;;;;;;;4.20;2.35;;;20.50;69.30;;;;;;4938683;29;20444;-79
2021/08/31 09:18:57;;;;;;;3.40;2.22;;;20.50;69.50;;;;;;4922321;29;20529;-79
2021/08/31 09:21:28;;;;;;;5.10;2.83;;;20.60;69.30;;;;;;4939188;29;20103;-80
2021/08/31 09:23:57;;;;;;;5.13;2.40;;;20.60;69.30;;;;;;4922117;29;20099;-80
2021/08/31 09:26:38;;;;;;;4.88;2.70;;;20.60;69.30;;;;;;4922113;29;20028;-81
2021/08/31 09:29:12;;;;;;;3.78;2.50;;;20.60;69.40;;;;;;4939130;29;20439;-81
2021/08/31 09:31:44;;;;;;;5.53;2.67;;;20.70;69.30;;;;;;4922158;29;20040;-80
2021/08/31 09:34:32;;;;;;;5.47;2.60;;;20.70;69.20;;;;;;4939435;29;20110;-80
2021/08/31 09:37:34;;;;;;;4.53;2.45;;;20.80;69.30;;;;;;4937295;29;20067;-81
2021/08/31 09:40:13;;;;;;;4.18;2.45;;;20.80;69.20;;;;;;4938605;29;20035;-80
2021/08/31 09:43:04;;;;;;;2.88;2.15;;;20.90;69.10;;;;;;4938828;29;20027;-79
2021/08/31 09:45:33;;;;;;;4.13;2.40;;;20.90;69.10;;;;;;4940237;29;20042;-81
2021/08/31 09:48:01;;;;;;;4.05;2.50;;;21.00;69.00;;;;;;4927917;29;20063;-81
2021/08/31 09:50:30;;;;;;;3.97;2.53;;;21.00;69.00;;;;;;4945610;29;20503;-83
2021/08/31 09:53:10;;;;;;;4.25;2.38;;;21.10;69.00;;;;;;4935690;29;20047;-83
2021/08/31 09:55:38;;;;;;;4.85;2.55;;;21.20;69.00;;;;;;4926492;29;20505;-81
2021/08/31 09:58:17;;;;;;;4.45;2.38;;;21.20;68.90;;;;;;4937478;29;20507;-81
2021/08/31 10:00:45;;;;;;;4.18;2.85;;;21.30;68.90;;;;;;4937349;29;20540;-81
2021/08/31 10:03:12;;;;;;;4.03;2.60;;;21.40;68.80;;;;;;4937265;29;20032;-81
2021/08/31 10:05:39;;;;;;;3.70;2.35;;;21.40;68.70;;;;;;4921312;29;20058;-80
2021/08/31 10:08:06;;;;;;;3.55;2.47;;;21.50;68.70;;;;;;4922263;29;20369;-80
2021/08/31 10:10:33;;;;;;;3.42;2.35;;;21.60;68.60;;;;;;4921747;29;20457;-81
2021/08/31 10:13:03;;;;;;;3.25;2.20;;;21.70;68.50;;;;;;4937024;29;20517;-79
2021/08/31 10:15:29;;;;;;;4.72;2.47;;;21.70;68.50;;;;;;4937089;29;20028;-81
2021/08/31 10:17:55;;;;;;;3.42;2.05;;;21.80;68.40;;;;;;4921937;29;20100;-82
2021/08/31 10:20:26;;;;;;;4.00;2.60;;;21.90;68.30;;;;;;4936820;29;20048;-80
2021/08/31 10:22:53;;;;;;;3.75;2.22;;;21.90;68.20;;;;;;4937051;29;20032;-81
2021/08/31 10:25:22;;;;;;;3.88;2.60;;;22.00;68.20;;;;;;4921042;29;20047;-81
2021/08/31 10:27:47;;;;;;;3.08;2.30;;;22.10;68.20;;;;;;4938162;29;20035;-80
2021/08/31 10:30:19;;;;;;;3.90;2.40;;;22.20;68.30;;;;;;4921114;29;20036;-81
2021/08/31 10:32:47;;;;;;;3.90;2.80;;;22.20;68.30;;;;;;4937232;29;20118;-81
2021/08/31 10:35:43;;;;;;;3.78;2.25;;;22.30;68.30;;;;;;4938175;29;20035;-81
2021/08/31 10:38:11;;;;;;;3.58;2.13;;;22.40;68.30;;;;;;4938148;29;20083;-82
2021/08/31 10:40:39;;;;;;;4.07;2.40;;;22.50;68.10;;;;;;4936656;29;20070;-82
2021/08/31 10:43:10;;;;;;;4.20;2.53;;;22.50;68.10;;;;;;4936641;29;20036;-82
2021/08/31 10:45:43;;;;;;;3.38;2.30;;;22.60;68.10;;;;;;4936585;29;20039;-81
2021/08/31 10:48:23;;;;;;;2.72;2.08;;;22.70;68.00;;;;;;4934632;29;20130;-85
2021/08/31 10:50:49;;;;;;;3.35;2.28;;;22.80;68.10;;;;;;4956323;28;20108;-82
2021/08/31 10:53:42;;;;;;;3.42;2.25;;;22.80;67.90;;;;;;4939627;29;20040;-81
2021/08/31 10:56:20;;;;;;;4.82;2.80;;;22.90;68.10;;;;;;4939854;29;20118;-81
2021/08/31 10:58:47;;;;;;;4.30;2.33;;;23.00;68.00;;;;;;4955195;28;20100;-83
2021/08/31 11:01:15;;;;;;;4.10;2.47;;;23.00;68.00;;;;;;4971183;28;20072;-82
2021/08/31 11:03:42;;;;;;;4.55;2.53;;;23.10;68.10;;;;;;4956698;28;20045;-83
2021/08/31 11:06:15;;;;;;;3.85;2.53;;;23.20;68.10;;;;;;4941405;29;20403;-82
2021/08/31 11:08:41;;;;;;;4.80;2.60;;;23.20;68.30;;;;;;4956947;28;20032;-81
2021/08/31 11:11:17;;;;;;;3.50;2.38;;;23.30;68.10;;;;;;4955531;28;20499;-81
2021/08/31 11:13:56;;;;;;;3.15;2.22;;;23.30;68.20;;;;;;4957150;28;20050;-82
2021/08/31 11:16:30;;;;;;;3.20;2.40;;;23.40;68.20;;;;;;4939861;29;20059;-82
2021/08/31 11:18:56;;;;;;;3.28;2.35;;;23.50;68.20;;;;;;4939380;29;20035;-81
2021/08/31 11:21:22;;;;;;;3.80;2.13;;;23.50;68.00;;;;;;4955962;28;20027;-81
2021/08/31 11:23:49;;;;;;;3.20;2.15;;;23.50;68.00;;;;;;4923283;29;20134;-81
2021/08/31 11:26:26;;;;;;;4.35;2.80;;;23.60;68.00;;;;;;4923233;29;20091;-81
2021/08/31 11:28:52;;;;;;;4.22;2.50;;;23.60;68.10;;;;;;4939055;29;20113;-80
2021/08/31 11:31:25;;;;;;;3.42;2.30;;;23.60;67.90;;;;;;4923362;29;20117;-80
2021/08/31 11:33:53;;;;;;;3.42;2.45;;;23.70;67.90;;;;;;4954964;28;20139;-82
2021/08/31 11:36:21;;;;;;;4.00;2.30;;;23.70;67.80;;;;;;4970727;28;20065;-81
2021/08/31 11:39:01;;;;;;;4.60;2.30;;;23.70;67.80;;;;;;4939398;29;20035;-81
2021/08/31 11:41:42;;;;;;;4.07;2.28;;;23.80;67.80;;;;;;4938312;29;20035;-81
2021/08/31 11:44:12;;;;;;;3.25;2.35;;;23.80;67.80;;;;;;4938551;29;20118;-82
2021/08/31 11:46:41;;;;;;;4.53;2.58;;;23.80;67.60;;;;;;4972339;28;20031;-81
2021/08/31 11:49:08;;;;;;;3.38;2.20;;;23.90;67.70;;;;;;4957778;28;20074;-82
2021/08/31 11:51:34;;;;;;;5.47;2.65;;;23.90;67.70;;;;;;4957873;28;20038;-82
2021/08/31 11:54:08;;;;;;;3.60;2.45;;;23.90;67.70;;;;;;4957924;28;20447;-81
2021/08/31 11:56:35;;;;;;;3.70;2.20;;;23.90;67.80;;;;;;4942216;28;20035;-81
2021/08/31 11:59:01;;;;;;;2.78;2.10;;;24.00;67.80;;;;;;4941724;28;20070;-82
2021/08/31 12:01:32;;;;;;;3.28;2.13;;;24.00;67.90;;;;;;4941462;28;20039;-82
2021/08/31 12:04:18;;;;;;;3.28;2.20;;;24.00;67.90;;;;;;4957905;28;20043;-82
2021/08/31 12:06:47;;;;;;;3.60;2.10;;;24.00;68.20;;;;;;4941750;28;20121;-83
2021/08/31 12:09:17;;;;;;;2.63;2.03;;;24.00;67.90;;;;;;4942321;28;20023;-81
2021/08/31 12:11:43;;;;;;;4.18;2.40;;;24.00;67.80;;;;;;4958799;28;20049;-82
2021/08/31 12:14:09;;;;;;;3.05;1.98;;;24.10;67.80;;;;;;4961473;28;20027;-83
2021/08/31 12:16:36;;;;;;;4.10;2.38;;;24.10;67.40;;;;;;4945354;28;20031;-82
2021/08/31 12:19:16;;;;;;;3.10;2.03;;;24.10;67.10;;;;;;4945441;28;20085;-82
2021/08/31 12:21:42;;;;;;;5.32;2.42;;;24.20;67.30;;;;;;4977523;28;20090;-82
2021/08/31 12:24:14;;;;;;;2.97;1.95;;;24.20;67.10;;;;;;4929281;28;20047;-82
2021/08/31 12:26:40;;;;;;;3.75;2.13;;;24.20;67.00;;;;;;4929768;28;20426;-82
2021/08/31 12:29:11;;;;;;;3.38;2.17;;;24.20;67.00;;;;;;4961411;28;20039;-84
2021/08/31 12:31:38;;;;;;;3.80;2.25;;;24.20;67.10;;;;;;4945190;28;20035;-82
2021/08/31 12:34:31;;;;;;;4.45;2.50;;;24.20;67.10;;;;;;4945446;28;20566;-81
2021/08/31 12:36:57;;;;;;;3.33;2.03;;;24.20;67.10;;;;;;4954150;28;20047;-82
2021/08/31 12:39:26;;;;;;;3.42;2.15;;;24.20;66.80;;;;;;4977515;28;20044;-82
2021/08/31 12:41:53;;;;;;;2.95;2.10;;;24.30;66.80;;;;;;4945217;28;20037;-82
2021/08/31 12:44:20;;;;;;;3.13;2.13;;;24.30;66.60;;;;;;4945193;28;20490;-82
2021/08/31 12:46:48;;;;;;;3.55;2.25;;;24.30;66.70;;;;;;4945006;28;20134;-83
2021/08/31 12:49:19;;;;;;;4.43;2.30;;;24.30;66.50;;;;;;4945227;28;20038;-81
2021/08/31 12:51:46;;;;;;;3.42;2.15;;;24.40;66.50;;;;;;4961668;28;20023;-80